Time;durP1;ratioP1;P1;durP2;ratioP2;P2;SDS_P1;SDS_P2;PMS_P1;PMS_P2;Temp;Humidity;BMP_temperature;BMP_pressure;BME280_temperature;BME280_humidity;BME280_pressure;Samples;Min_cycle;Max_cycle;Signal;HPM_P1;HPM_P2
2022/03/26 00:01:23;;;;;;;4.13;1.02;;;21.20;99.90;;;;;;4922199;29;20046;-71
2022/03/26 00:03:50;;;;;;;1.33;1.00;;;21.30;99.90;;;;;;4930778;29;20414;-72
2022/03/26 00:06:18;;;;;;;2.15;0.77;;;21.40;99.90;;;;;;4927302;29;20479;-71
2022/03/26 00:08:48;;;;;;;2.20;1.92;;;21.40;99.90;;;;;;4927113;29;20164;-71
2022/03/26 00:11:16;;;;;;;1.17;0.75;;;21.50;99.90;;;;;;4928636;29;20023;-71
2022/03/26 00:13:43;;;;;;;0.63;0.40;;;21.50;99.90;;;;;;4927587;29;20102;-70
2022/03/26 00:16:13;;;;;;;2.20;0.88;;;21.50;99.90;;;;;;4925000;29;20040;-70
2022/03/26 00:18:40;;;;;;;3.15;0.70;;;21.60;99.90;;;;;;4923706;29;20063;-71
2022/03/26 00:21:08;;;;;;;6.88;1.10;;;21.70;99.90;;;;;;4928865;29;20506;-71
2022/03/26 00:23:35;;;;;;;2.30;0.90;;;21.70;99.90;;;;;;4933034;29;20115;-72
2022/03/26 00:26:02;;;;;;;2.97;1.25;;;21.80;99.90;;;;;;4932127;29;20525;-72
2022/03/26 00:28:30;;;;;;;2.75;0.55;;;21.70;99.90;;;;;;4923769;29;20032;-71
2022/03/26 00:30:58;;;;;;;0.70;0.52;;;21.70;99.90;;;;;;4931387;29;20047;-73
2022/03/26 00:33:25;;;;;;;1.15;0.47;;;21.70;99.90;;;;;;4930022;29;20051;-71
2022/03/26 00:35:52;;;;;;;2.15;0.60;;;21.70;99.90;;;;;;4933781;29;20031;-72
2022/03/26 00:38:20;;;;;;;1.55;0.60;;;21.80;99.90;;;;;;4932015;29;20386;-72
2022/03/26 00:40:47;;;;;;;1.10;0.50;;;21.80;99.90;;;;;;4934903;29;20028;-72
2022/03/26 00:43:15;;;;;;;3.00;0.75;;;21.90;99.90;;;;;;4931266;29;20032;-73
2022/03/26 00:45:44;;;;;;;1.88;0.60;;;21.90;99.90;;;;;;4929441;29;20502;-73
2022/03/26 00:48:11;;;;;;;2.40;0.47;;;21.80;99.90;;;;;;4924772;29;20043;-72
2022/03/26 00:50:39;;;;;;;0.70;0.40;;;21.90;99.90;;;;;;4934854;29;20024;-73
2022/03/26 00:53:06;;;;;;;1.42;0.70;;;21.90;99.90;;;;;;4931858;29;20056;-72
2022/03/26 00:55:34;;;;;;;2.42;0.77;;;21.80;99.90;;;;;;4922419;29;20036;-72
2022/03/26 00:58:02;;;;;;;1.58;0.57;;;21.90;99.90;;;;;;4929359;29;20034;-72
2022/03/26 01:00:29;;;;;;;2.53;0.70;;;21.90;99.90;;;;;;4927050;29;20052;-72
2022/03/26 01:02:58;;;;;;;1.65;0.68;;;21.90;99.90;;;;;;4926313;29;20039;-72
2022/03/26 01:05:25;;;;;;;1.95;0.50;;;21.80;99.90;;;;;;4932429;29;20539;-72
2022/03/26 01:07:56;;;;;;;2.42;0.50;;;21.70;99.90;;;;;;4931364;29;20059;-72
2022/03/26 01:10:23;;;;;;;4.93;1.38;;;21.60;99.90;;;;;;4932657;29;20389;-72
2022/03/26 01:12:50;;;;;;;1.48;0.50;;;21.50;99.90;;;;;;4932647;29;20051;-72
2022/03/26 01:15:18;;;;;;;4.63;0.80;;;21.40;99.90;;;;;;4932170;29;20443;-71
2022/03/26 01:17:45;;;;;;;2.17;0.60;;;21.30;99.90;;;;;;4924652;29;20146;-72
2022/03/26 01:20:13;;;;;;;2.20;0.50;;;21.10;99.90;;;;;;4934805;29;20047;-72
2022/03/26 01:22:40;;;;;;;4.30;1.15;;;21.00;99.90;;;;;;4920706;29;20075;-72
2022/03/26 01:25:08;;;;;;;1.77;0.70;;;20.90;99.90;;;;;;4935039;29;20019;-72
2022/03/26 01:27:35;;;;;;;2.78;1.70;;;20.80;99.90;;;;;;4924783;29;20027;-74
2022/03/26 01:30:04;;;;;;;1.52;0.60;;;20.80;99.90;;;;;;4934101;29;20031;-74
2022/03/26 01:32:31;;;;;;;2.63;0.43;;;20.80;99.90;;;;;;4932206;29;20075;-71
2022/03/26 01:34:59;;;;;;;0.70;0.32;;;20.80;99.90;;;;;;4925611;29;20450;-72
2022/03/26 01:37:27;;;;;;;0.65;0.65;;;20.80;99.90;;;;;;4921666;29;20370;-73
2022/03/26 01:39:54;;;;;;;2.08;0.73;;;21.00;99.90;;;;;;4926542;29;20406;-73
2022/03/26 01:42:22;;;;;;;1.50;0.55;;;21.10;99.90;;;;;;4926619;29;20023;-71
2022/03/26 01:44:49;;;;;;;3.10;0.50;;;21.10;99.90;;;;;;4930003;29;20583;-72
2022/03/26 01:47:17;;;;;;;2.22;0.57;;;21.20;99.90;;;;;;4921314;29;20484;-74
2022/03/26 01:49:46;;;;;;;3.08;0.50;;;21.20;99.90;;;;;;4932116;29;20032;-72
2022/03/26 01:52:13;;;;;;;2.95;0.65;;;21.20;99.90;;;;;;4926309;29;20390;-72
2022/03/26 01:54:41;;;;;;;1.08;0.98;;;21.20;99.90;;;;;;4932811;29;20027;-72
2022/03/26 01:57:11;;;;;;;3.45;0.65;;;21.10;99.90;;;;;;4931239;29;20036;-71
2022/03/26 01:59:40;;;;;;;4.40;1.05;;;21.10;99.90;;;;;;4930070;29;20075;-73
2022/03/26 02:02:09;;;;;;;2.53;0.60;;;21.10;99.90;;;;;;4928632;29;20364;-72
2022/03/26 02:04:36;;;;;;;3.15;0.50;;;21.00;99.90;;;;;;4930855;29;20532;-72
2022/03/26 02:07:07;;;;;;;2.63;0.60;;;21.00;99.90;;;;;;4931796;29;20044;-72
2022/03/26 02:09:37;;;;;;;1.20;0.35;;;21.00;99.90;;;;;;4931676;29;20027;-72
2022/03/26 02:12:21;;;;;;;1.58;0.70;;;21.00;99.90;;;;;;4927860;29;20116;-73
2022/03/26 02:14:50;;;;;;;3.05;0.63;;;21.00;99.90;;;;;;4925226;29;20032;-71
2022/03/26 02:17:28;;;;;;;2.78;0.73;;;21.10;99.90;;;;;;4934186;29;20032;-73
2022/03/26 02:19:57;;;;;;;2.00;0.75;;;21.10;99.90;;;;;;4924635;29;20075;-72
2022/03/26 02:22:26;;;;;;;0.70;0.30;;;21.10;99.90;;;;;;4930782;29;20034;-73
2022/03/26 02:24:54;;;;;;;1.65;0.47;;;21.20;99.90;;;;;;4921804;29;20032;-73
2022/03/26 02:27:23;;;;;;;2.53;0.85;;;21.20;99.90;;;;;;4930579;29;20081;-73
2022/03/26 02:29:53;;;;;;;1.10;0.60;;;21.20;99.90;;;;;;4928367;29;20042;-73
2022/03/26 02:32:25;;;;;;;3.05;1.17;;;21.10;99.90;;;;;;4940465;29;20044;-71
2022/03/26 02:34:53;;;;;;;0.90;0.60;;;21.10;99.90;;;;;;4940806;29;20382;-70
2022/03/26 02:37:22;;;;;;;0.63;0.47;;;21.00;99.90;;;;;;4942838;29;20036;-73
2022/03/26 02:39:49;;;;;;;2.78;0.70;;;21.00;99.90;;;;;;4931623;29;20544;-72
2022/03/26 02:42:16;;;;;;;0.70;0.22;;;21.00;99.90;;;;;;4924546;29;20032;-70
2022/03/26 02:44:44;;;;;;;2.95;0.60;;;21.00;99.90;;;;;;4928820;29;20653;-71
2022/03/26 02:47:12;;;;;;;0.95;0.32;;;21.00;99.90;;;;;;4934026;29;20111;-72
2022/03/26 02:49:40;;;;;;;3.20;0.80;;;21.10;99.90;;;;;;4921597;29;20028;-73
2022/03/26 02:52:07;;;;;;;2.55;0.75;;;21.10;99.90;;;;;;4929797;29;20047;-72
2022/03/26 02:54:35;;;;;;;1.80;0.45;;;21.20;99.90;;;;;;4932006;29;20028;-72
2022/03/26 02:57:04;;;;;;;1.45;0.50;;;21.20;99.90;;;;;;4932705;29;20057;-73
2022/03/26 02:59:32;;;;;;;4.25;1.45;;;21.20;99.90;;;;;;4934384;29;20586;-71
2022/03/26 03:01:59;;;;;;;3.65;1.23;;;21.20;99.90;;;;;;4934461;29;20038;-71
2022/03/26 03:04:27;;;;;;;2.03;0.63;;;21.20;99.90;;;;;;4936388;29;20036;-70
2022/03/26 03:06:54;;;;;;;1.00;0.60;;;21.20;99.90;;;;;;4933558;29;20046;-71
2022/03/26 03:09:22;;;;;;;0.82;0.50;;;21.30;99.90;;;;;;4936276;29;20108;-71
2022/03/26 03:11:49;;;;;;;1.40;0.77;;;21.40;99.90;;;;;;4924970;29;20051;-73
2022/03/26 03:14:16;;;;;;;3.22;0.93;;;21.40;99.90;;;;;;4926426;29;20036;-73
2022/03/26 03:16:45;;;;;;;1.58;0.40;;;21.30;99.90;;;;;;4920237;29;20027;-72
2022/03/26 03:19:13;;;;;;;1.50;0.75;;;21.40;99.90;;;;;;4932999;29;20060;-71
2022/03/26 03:21:41;;;;;;;0.98;0.45;;;21.30;99.90;;;;;;4935462;29;20036;-71
2022/03/26 03:24:08;;;;;;;4.07;0.68;;;21.40;99.90;;;;;;4924351;29;20039;-71
2022/03/26 03:26:36;;;;;;;2.53;1.05;;;21.40;99.90;;;;;;4926277;29;20067;-73
2022/03/26 03:29:03;;;;;;;2.83;1.15;;;21.50;99.90;;;;;;4925946;29;20028;-71
2022/03/26 03:31:30;;;;;;;0.90;0.68;;;21.60;99.90;;;;;;4935899;29;20079;-71
2022/03/26 03:33:58;;;;;;;2.17;0.90;;;21.80;99.90;;;;;;4929537;29;20111;-70
2022/03/26 03:36:25;;;;;;;2.58;0.95;;;21.90;99.90;;;;;;4934340;29;20524;-72
2022/03/26 03:38:53;;;;;;;1.30;0.60;;;22.20;99.90;;;;;;4933601;29;20038;-71
2022/03/26 03:41:20;;;;;;;4.22;1.05;;;22.50;99.90;;;;;;4935400;29;20023;-71
2022/03/26 03:43:47;;;;;;;2.58;0.95;;;22.60;99.90;;;;;;4933663;29;20054;-71
2022/03/26 03:46:15;;;;;;;1.20;0.88;;;22.90;99.90;;;;;;4936075;29;20034;-71
2022/03/26 03:48:42;;;;;;;1.52;0.77;;;23.00;99.90;;;;;;4931143;29;20035;-72
2022/03/26 03:51:09;;;;;;;2.30;0.68;;;23.00;99.90;;;;;;4932851;29;20711;-71
2022/03/26 03:53:37;;;;;;;3.70;0.77;;;22.90;99.90;;;;;;4921197;29;20032;-71
2022/03/26 03:56:04;;;;;;;3.03;0.70;;;22.70;99.90;;;;;;4934234;29;20711;-72
2022/03/26 03:58:32;;;;;;;2.35;0.73;;;22.60;99.90;;;;;;4928257;29;20040;-73
2022/03/26 04:00:59;;;;;;;0.95;0.68;;;22.50;99.90;;;;;;4918780;29;20094;-72
2022/03/26 04:03:27;;;;;;;3.58;1.13;;;22.40;99.90;;;;;;4928313;29;20060;-71
2022/03/26 04:05:54;;;;;;;1.85;0.70;;;22.30;99.90;;;;;;4931251;29;20030;-71
2022/03/26 04:08:21;;;;;;;2.70;0.70;;;22.30;99.90;;;;;;4930555;29;20036;-74
2022/03/26 04:10:48;;;;;;;3.72;1.27;;;22.20;99.90;;;;;;4933484;29;20115;-72
2022/03/26 04:13:16;;;;;;;2.80;0.77;;;22.10;99.90;;;;;;4933795;29;20119;-72
2022/03/26 04:15:43;;;;;;;2.25;0.73;;;22.00;99.90;;;;;;4935187;29;20613;-71
2022/03/26 04:18:10;;;;;;;1.65;0.85;;;21.90;99.90;;;;;;4932955;29;20130;-72
2022/03/26 04:20:40;;;;;;;3.30;1.50;;;21.90;99.90;;;;;;4932594;29;20046;-72
2022/03/26 04:23:08;;;;;;;2.60;1.13;;;21.90;99.90;;;;;;4928904;29;20035;-73
2022/03/26 04:25:35;;;;;;;2.35;0.90;;;21.80;99.90;;;;;;4924562;29;20043;-72
2022/03/26 04:28:04;;;;;;;3.38;1.02;;;21.70;99.90;;;;;;4930480;29;20470;-72
2022/03/26 04:30:31;;;;;;;1.30;0.70;;;21.50;99.90;;;;;;4939587;29;20143;-73
2022/03/26 04:32:58;;;;;;;1.98;0.70;;;21.50;99.90;;;;;;4927711;29;20533;-72
2022/03/26 04:35:26;;;;;;;1.75;0.75;;;21.30;99.90;;;;;;4935454;29;20135;-75
2022/03/26 04:37:56;;;;;;;2.20;0.90;;;21.30;99.90;;;;;;4921869;29;20036;-72
2022/03/26 04:40:28;;;;;;;3.40;1.48;;;21.50;99.90;;;;;;4925689;29;20059;-72
2022/03/26 04:42:56;;;;;;;3.30;1.10;;;21.50;99.90;;;;;;4922919;29;20391;-72
2022/03/26 04:45:24;;;;;;;3.33;1.83;;;21.50;99.90;;;;;;4931201;29;20083;-72
2022/03/26 04:47:51;;;;;;;3.00;0.50;;;21.60;99.90;;;;;;4927571;29;20035;-71
2022/03/26 04:50:19;;;;;;;2.30;0.80;;;21.50;99.90;;;;;;4923954;29;20050;-72
2022/03/26 04:52:48;;;;;;;2.53;0.85;;;21.60;99.90;;;;;;4933564;29;20061;-72
2022/03/26 04:55:15;;;;;;;3.78;0.93;;;21.60;99.90;;;;;;4932747;29;20111;-71
2022/03/26 04:57:44;;;;;;;1.92;1.10;;;21.60;99.90;;;;;;4923843;29;20394;-71
2022/03/26 05:00:14;;;;;;;1.00;0.88;;;21.70;99.90;;;;;;4934923;29;20364;-72
2022/03/26 05:02:42;;;;;;;5.30;0.60;;;21.70;99.90;;;;;;4932450;29;20125;-71
2022/03/26 05:05:12;;;;;;;2.53;0.88;;;21.70;99.90;;;;;;4921665;29;20083;-72
2022/03/26 05:07:46;;;;;;;2.00;1.13;;;21.50;99.90;;;;;;4931990;29;20035;-70
2022/03/26 05:10:23;;;;;;;0.85;0.52;;;21.50;99.90;;;;;;4935066;29;20099;-71
2022/03/26 05:12:52;;;;;;;3.80;0.50;;;21.40;99.90;;;;;;4932688;29;20043;-73
2022/03/26 05:15:22;;;;;;;2.78;0.60;;;21.50;99.90;;;;;;4930523;29;20031;-71
2022/03/26 05:17:51;;;;;;;1.02;0.50;;;21.50;99.90;;;;;;4931866;29;20067;-70
2022/03/26 05:20:18;;;;;;;1.20;0.50;;;21.60;99.90;;;;;;4925738;29;20142;-70
2022/03/26 05:22:47;;;;;;;1.48;0.82;;;21.50;99.90;;;;;;4928704;29;20546;-72
2022/03/26 05:25:15;;;;;;;2.92;1.00;;;21.30;99.90;;;;;;4920389;29;20448;-72
2022/03/26 05:27:51;;;;;;;2.80;0.75;;;21.20;99.90;;;;;;4924109;29;20024;-74
2022/03/26 05:30:19;;;;;;;3.22;0.77;;;21.10;99.90;;;;;;4931630;29;20028;-74
2022/03/26 05:32:48;;;;;;;1.88;0.40;;;20.90;99.90;;;;;;4927494;29;20549;-70
2022/03/26 05:35:16;;;;;;;2.40;0.45;;;20.80;99.90;;;;;;4933908;29;20114;-72
2022/03/26 05:37:45;;;;;;;0.68;0.32;;;20.60;99.90;;;;;;4924408;29;20070;-73
2022/03/26 05:40:16;;;;;;;0.75;0.40;;;20.60;99.90;;;;;;4935531;29;20024;-72
2022/03/26 05:42:44;;;;;;;0.60;0.40;;;20.60;99.90;;;;;;4929648;29;20067;-72
2022/03/26 05:45:12;;;;;;;1.13;0.43;;;20.70;99.90;;;;;;4934014;29;20501;-73
2022/03/26 05:47:40;;;;;;;1.10;0.40;;;20.80;99.90;;;;;;4931997;29;20390;-74
2022/03/26 05:50:09;;;;;;;2.83;0.43;;;20.80;99.90;;;;;;4925164;29;20465;-73
2022/03/26 05:52:37;;;;;;;0.70;0.63;;;20.70;99.90;;;;;;4929821;29;20075;-74
2022/03/26 05:55:05;;;;;;;3.70;0.30;;;20.80;99.90;;;;;;4934328;29;20028;-72
2022/03/26 05:57:33;;;;;;;1.02;0.52;;;20.50;99.90;;;;;;4930403;29;20471;-71
2022/03/26 06:00:00;;;;;;;3.75;0.52;;;20.40;99.90;;;;;;4928801;29;20035;-73
2022/03/26 06:02:28;;;;;;;0.80;0.38;;;20.30;99.90;;;;;;4917438;29;20463;-73
2022/03/26 06:04:55;;;;;;;2.38;1.20;;;20.40;99.90;;;;;;4922809;29;20051;-72
2022/03/26 06:07:23;;;;;;;2.28;0.60;;;20.30;99.90;;;;;;4923025;29;20036;-72
2022/03/26 06:09:50;;;;;;;2.38;1.05;;;20.20;99.90;;;;;;4920911;28;20044;-72
2022/03/26 06:12:17;;;;;;;2.15;0.60;;;20.20;99.90;;;;;;4923813;28;20036;-72
2022/03/26 06:14:45;;;;;;;2.00;0.70;;;20.20;99.90;;;;;;4928919;29;20035;-72
2022/03/26 06:17:13;;;;;;;3.05;0.70;;;20.10;99.90;;;;;;4937704;29;20028;-72
2022/03/26 06:19:40;;;;;;;1.30;0.50;;;20.20;99.90;;;;;;4943935;29;20056;-73
2022/03/26 06:22:07;;;;;;;0.70;0.40;;;20.20;99.90;;;;;;4942093;29;20029;-73
2022/03/26 06:24:35;;;;;;;3.70;0.60;;;20.20;99.90;;;;;;4930520;29;20032;-74
2022/03/26 06:27:03;;;;;;;2.15;0.55;;;20.20;99.90;;;;;;4929037;29;20039;-73
2022/03/26 06:29:30;;;;;;;2.90;0.65;;;20.10;99.90;;;;;;4936020;29;20051;-71
2022/03/26 06:31:57;;;;;;;1.08;0.68;;;20.20;99.90;;;;;;4932721;29;20471;-72
2022/03/26 06:34:25;;;;;;;1.77;0.50;;;20.10;99.90;;;;;;4929713;29;20042;-72
2022/03/26 06:36:52;;;;;;;2.92;0.70;;;20.20;99.90;;;;;;4930904;29;20066;-72
2022/03/26 06:39:20;;;;;;;3.13;0.77;;;20.20;99.90;;;;;;4934451;29;20550;-72
2022/03/26 06:41:47;;;;;;;2.05;0.85;;;20.20;99.90;;;;;;4939239;29;21728;-72
2022/03/26 06:44:14;;;;;;;1.75;0.98;;;20.30;99.90;;;;;;4928909;29;20035;-73
2022/03/26 06:46:42;;;;;;;5.18;0.75;;;20.30;99.90;;;;;;4932300;29;20056;-73
2022/03/26 06:49:10;;;;;;;1.67;0.60;;;20.30;99.90;;;;;;4931604;29;20024;-72
2022/03/26 06:51:38;;;;;;;3.55;0.68;;;20.20;99.90;;;;;;4929579;29;20594;-73
2022/03/26 06:54:06;;;;;;;1.67;0.77;;;20.20;99.90;;;;;;4931093;29;20131;-73
2022/03/26 06:56:34;;;;;;;4.55;0.65;;;20.20;99.90;;;;;;4933858;29;20106;-73
2022/03/26 06:59:01;;;;;;;2.50;0.75;;;20.20;99.90;;;;;;4914946;29;20667;-72
2022/03/26 07:01:29;;;;;;;3.60;1.13;;;20.10;99.90;;;;;;4923667;29;20027;-73
2022/03/26 07:03:56;;;;;;;1.92;0.77;;;20.00;99.90;;;;;;4929968;29;20390;-73
2022/03/26 07:06:24;;;;;;;3.95;0.63;;;19.90;99.90;;;;;;4930123;29;20032;-72
2022/03/26 07:08:53;;;;;;;4.10;1.02;;;19.90;99.90;;;;;;4922527;29;20043;-71
2022/03/26 07:11:21;;;;;;;3.78;0.93;;;19.90;99.90;;;;;;4927162;29;20048;-72
2022/03/26 07:13:49;;;;;;;1.58;0.52;;;19.80;99.90;;;;;;4924343;29;20491;-72
2022/03/26 07:16:16;;;;;;;1.42;0.60;;;19.80;99.90;;;;;;4932569;29;20099;-73
2022/03/26 07:18:46;;;;;;;1.95;0.60;;;19.70;99.90;;;;;;4929477;29;20070;-72
2022/03/26 07:21:14;;;;;;;1.98;0.52;;;19.70;99.90;;;;;;4932586;29;20039;-73
2022/03/26 07:23:41;;;;;;;1.13;0.63;;;19.60;99.90;;;;;;4929712;29;20032;-76
2022/03/26 07:26:08;;;;;;;0.50;0.30;;;19.60;99.90;;;;;;4931906;29;20034;-77
2022/03/26 07:28:36;;;;;;;1.73;0.50;;;19.50;99.90;;;;;;4933198;29;20027;-76
2022/03/26 07:31:03;;;;;;;0.70;0.30;;;19.40;99.90;;;;;;4934542;29;20035;-74
2022/03/26 07:33:30;;;;;;;3.22;1.08;;;19.30;99.90;;;;;;4919212;29;20074;-76
2022/03/26 07:35:58;;;;;;;3.55;0.55;;;19.30;99.90;;;;;;4935528;29;20110;-76
2022/03/26 07:38:25;;;;;;;2.33;1.05;;;19.20;99.90;;;;;;4934806;29;20275;-74
2022/03/26 07:40:53;;;;;;;1.25;0.50;;;19.20;99.90;;;;;;4936353;29;20031;-74
2022/03/26 07:43:20;;;;;;;3.13;0.47;;;19.20;99.90;;;;;;4933886;29;20039;-74
2022/03/26 07:45:48;;;;;;;2.80;0.70;;;19.10;99.90;;;;;;4936593;29;20111;-73
2022/03/26 07:48:15;;;;;;;4.60;0.85;;;19.10;99.90;;;;;;4932461;29;20035;-73
2022/03/26 07:50:42;;;;;;;5.88;1.45;;;19.10;99.90;;;;;;4917193;29;20071;-75
2022/03/26 07:53:10;;;;;;;0.95;0.60;;;19.10;99.90;;;;;;4922890;29;20673;-75
2022/03/26 07:55:37;;;;;;;1.80;0.52;;;19.10;99.90;;;;;;4924709;29;20051;-76
2022/03/26 07:58:04;;;;;;;2.13;0.60;;;19.10;99.90;;;;;;4917217;29;20057;-76
2022/03/26 08:00:32;;;;;;;1.95;0.70;;;19.10;99.90;;;;;;4918014;29;20039;-74
2022/03/26 08:02:59;;;;;;;2.20;0.45;;;19.00;99.90;;;;;;4932658;29;20039;-75
2022/03/26 08:05:27;;;;;;;5.20;0.68;;;18.90;99.90;;;;;;4931036;29;20058;-75
2022/03/26 08:07:54;;;;;;;2.05;0.57;;;19.00;99.90;;;;;;4923600;29;20036;-75
2022/03/26 08:10:21;;;;;;;0.73;0.30;;;18.90;99.90;;;;;;4923046;29;20996;-73
2022/03/26 08:12:49;;;;;;;2.90;0.70;;;18.90;99.90;;;;;;4929795;29;20438;-73
2022/03/26 08:15:16;;;;;;;2.47;0.60;;;18.90;99.90;;;;;;4930637;29;20027;-73
2022/03/26 08:17:43;;;;;;;1.02;0.70;;;19.00;99.90;;;;;;4932268;29;20035;-72
2022/03/26 08:20:11;;;;;;;2.05;0.47;;;19.10;99.90;;;;;;4935056;29;20044;-72
2022/03/26 08:22:41;;;;;;;3.22;0.60;;;19.10;99.90;;;;;;4927476;29;20047;-73
2022/03/26 08:26:19;;;;;;;2.30;0.95;;;19.10;99.90;;;;;;4923968;29;20110;-73
2022/03/26 08:28:04;;;;;;;3.45;0.70;;;19.10;99.90;;;;;;4920422;29;20051;-73
2022/03/26 08:30:32;;;;;;;2.22;0.80;;;19.10;99.90;;;;;;4925268;29;20046;-73
2022/03/26 08:33:04;;;;;;;2.35;0.45;;;19.10;99.90;;;;;;4923388;29;20095;-73
2022/03/26 08:35:40;;;;;;;1.85;0.57;;;19.10;99.90;;;;;;4920365;29;20039;-73
2022/03/26 08:38:08;;;;;;;5.00;1.80;;;19.00;99.90;;;;;;4926971;29;20118;-74
2022/03/26 08:40:36;;;;;;;0.60;0.30;;;19.00;99.90;;;;;;4921093;29;20381;-74
2022/03/26 08:43:04;;;;;;;1.95;0.57;;;19.00;99.90;;;;;;4919528;29;20114;-73
2022/03/26 08:45:32;;;;;;;1.67;0.45;;;18.90;99.90;;;;;;4933156;29;20090;-72
2022/03/26 08:47:59;;;;;;;0.52;0.50;;;18.90;99.90;;;;;;4931659;29;20036;-74
2022/03/26 08:50:26;;;;;;;0.90;0.43;;;18.90;99.90;;;;;;4934920;29;20040;-74
2022/03/26 08:52:57;;;;;;;5.78;0.57;;;18.90;99.90;;;;;;4930422;29;20058;-72
2022/03/26 08:55:24;;;;;;;1.38;0.68;;;18.90;99.90;;;;;;4928289;29;20485;-72
2022/03/26 08:57:52;;;;;;;1.35;0.60;;;18.80;99.90;;;;;;4930416;29;20559;-74
2022/03/26 09:00:20;;;;;;;3.15;0.40;;;18.80;99.90;;;;;;4935775;29;20245;-72
2022/03/26 09:02:47;;;;;;;2.00;0.57;;;18.70;99.90;;;;;;4929716;29;20482;-73
2022/03/26 09:05:15;;;;;;;1.98;0.40;;;18.70;99.90;;;;;;4930467;29;20114;-73
2022/03/26 09:07:45;;;;;;;2.05;0.80;;;18.70;99.90;;;;;;4928529;29;20071;-72
2022/03/26 09:10:13;;;;;;;2.10;0.40;;;18.60;99.90;;;;;;4933261;29;20086;-73
2022/03/26 09:12:40;;;;;;;2.13;0.40;;;18.60;99.90;;;;;;4931156;29;20116;-72
2022/03/26 09:15:08;;;;;;;0.95;0.30;;;18.60;99.90;;;;;;4932595;29;20086;-74
2022/03/26 09:17:38;;;;;;;2.72;0.50;;;18.60;99.90;;;;;;4932026;29;20079;-75
2022/03/26 09:20:13;;;;;;;1.65;0.40;;;18.60;99.90;;;;;;4933781;29;20071;-76
2022/03/26 09:22:42;;;;;;;3.55;0.43;;;18.60;99.90;;;;;;4917161;29;20046;-76
2022/03/26 09:25:09;;;;;;;2.35;0.55;;;18.50;99.90;;;;;;4931158;29;20039;-76
2022/03/26 09:27:37;;;;;;;2.20;0.57;;;18.50;99.90;;;;;;4927783;29;20038;-74
2022/03/26 09:30:06;;;;;;;1.55;0.50;;;18.50;99.90;;;;;;4933732;29;20058;-74
2022/03/26 09:32:34;;;;;;;2.28;0.30;;;18.40;99.90;;;;;;4920454;29;20494;-75
2022/03/26 09:35:01;;;;;;;2.35;0.30;;;18.30;99.90;;;;;;4930087;29;20028;-76
2022/03/26 09:37:30;;;;;;;2.47;0.45;;;18.30;99.90;;;;;;4931308;29;20118;-76
2022/03/26 09:39:57;;;;;;;2.00;0.95;;;18.30;99.90;;;;;;4933959;29;20153;-76
2022/03/26 09:42:24;;;;;;;2.63;0.32;;;18.30;99.90;;;;;;4928609;28;20387;-76
2022/03/26 09:44:52;;;;;;;1.30;0.50;;;18.20;99.90;;;;;;4917455;29;20378;-74
2022/03/26 09:47:21;;;;;;;2.47;0.50;;;18.10;99.90;;;;;;4929033;29;20490;-76
2022/03/26 09:49:48;;;;;;;1.30;0.73;;;18.10;99.90;;;;;;4927968;29;20387;-74
2022/03/26 09:52:16;;;;;;;2.08;0.47;;;18.10;99.90;;;;;;4935267;29;20039;-75
2022/03/26 09:54:44;;;;;;;2.00;0.50;;;18.10;99.90;;;;;;4943553;29;20107;-75
2022/03/26 09:57:11;;;;;;;2.10;0.80;;;18.10;99.90;;;;;;4923151;29;20086;-76
2022/03/26 09:59:38;;;;;;;0.35;0.28;;;18.10;99.90;;;;;;4922950;29;20515;-76
2022/03/26 10:02:06;;;;;;;0.63;0.30;;;18.10;99.90;;;;;;4921036;29;20043;-77
2022/03/26 10:04:44;;;;;;;1.85;0.30;;;18.10;99.90;;;;;;4931282;29;20031;-76
2022/03/26 10:07:12;;;;;;;1.23;0.30;;;18.10;99.90;;;;;;4935258;29;20028;-75
2022/03/26 10:09:40;;;;;;;2.47;0.40;;;18.00;99.90;;;;;;4933208;29;20028;-76
2022/03/26 10:12:35;;;;;;;0.98;0.43;;;17.90;99.90;;;;;;4930060;29;20443;-77
2022/03/26 10:15:05;;;;;;;0.50;0.20;;;17.90;99.90;;;;;;4926769;29;20055;-76
2022/03/26 10:17:38;;;;;;;0.68;0.47;;;17.90;99.90;;;;;;4922280;29;20122;-75
2022/03/26 10:20:09;;;;;;;1.10;0.30;;;17.90;99.90;;;;;;4933000;29;20059;-75
2022/03/26 10:22:40;;;;;;;2.75;0.40;;;17.90;99.90;;;;;;4922006;29;20087;-75
2022/03/26 10:25:09;;;;;;;2.58;0.65;;;17.80;99.90;;;;;;4922568;29;20037;-74
2022/03/26 10:27:42;;;;;;;2.35;0.47;;;17.80;99.90;;;;;;4920201;29;20035;-75
2022/03/26 10:33:27;;;;;;;0.20;0.20;;;17.80;99.90;;;;;;4903458;29;20803;-76
2022/03/26 10:35:55;;;;;;;1.33;0.40;;;17.70;99.90;;;;;;4928815;29;20028;-77
2022/03/26 10:38:29;;;;;;;1.60;0.38;;;17.70;99.90;;;;;;4925772;29;20479;-76
2022/03/26 10:41:01;;;;;;;2.28;0.85;;;17.70;99.90;;;;;;4931069;29;20394;-75
2022/03/26 10:43:29;;;;;;;3.53;0.82;;;17.70;99.90;;;;;;4928563;29;20617;-74
2022/03/26 10:45:59;;;;;;;2.20;0.40;;;17.60;99.90;;;;;;4928470;29;20386;-75
2022/03/26 10:48:37;;;;;;;2.67;0.40;;;17.60;99.90;;;;;;4928130;29;20050;-73
2022/03/26 10:51:15;;;;;;;1.55;0.40;;;17.60;99.90;;;;;;4922573;29;20032;-74
2022/03/26 10:53:44;;;;;;;1.85;0.98;;;17.60;99.90;;;;;;4928120;29;20044;-75
2022/03/26 10:56:15;;;;;;;0.77;0.20;;;17.50;99.90;;;;;;4915188;29;20025;-76
2022/03/26 10:58:46;;;;;;;1.92;0.40;;;17.50;99.90;;;;;;4925083;29;20530;-75
2022/03/26 11:01:13;;;;;;;0.82;0.80;;;17.40;99.90;;;;;;4932250;29;20040;-76
2022/03/26 11:03:41;;;;;;;2.13;1.50;;;17.40;99.90;;;;;;4933801;29;20035;-75
2022/03/26 11:06:10;;;;;;;4.07;1.70;;;17.40;99.90;;;;;;4930809;29;20550;-74
2022/03/26 11:08:39;;;;;;;3.72;1.58;;;17.40;99.90;;;;;;4931069;29;20039;-76
2022/03/26 11:11:11;;;;;;;3.28;1.70;;;17.40;99.90;;;;;;4928097;29;20027;-75
2022/03/26 11:13:52;;;;;;;4.90;2.65;;;17.30;99.90;;;;;;4920820;29;20039;-75
2022/03/26 11:16:49;;;;;;;3.15;2.33;;;17.30;99.90;;;;;;4926544;29;20034;-75
2022/03/26 11:19:19;;;;;;;4.65;2.30;;;17.30;99.90;;;;;;4935118;29;20055;-75
2022/03/26 11:22:18;;;;;;;2.55;1.80;;;17.30;99.90;;;;;;4923875;29;20035;-75
2022/03/26 11:25:12;;;;;;;3.70;2.08;;;17.20;99.90;;;;;;4928223;29;20032;-76
2022/03/26 11:28:01;;;;;;;3.65;1.50;;;17.20;99.90;;;;;;4917506;29;20537;-74
2022/03/26 11:30:49;;;;;;;2.63;1.30;;;17.20;99.90;;;;;;4917929;29;20164;-74
2022/03/26 11:33:19;;;;;;;4.10;1.02;;;17.20;99.90;;;;;;4926456;29;20125;-73
2022/03/26 11:35:56;;;;;;;2.72;1.23;;;17.10;99.90;;;;;;4936193;29;20036;-73
2022/03/26 11:38:28;;;;;;;2.10;1.08;;;17.10;99.90;;;;;;4932079;29;20399;-74
2022/03/26 11:40:56;;;;;;;3.72;1.05;;;17.10;99.90;;;;;;4930841;29;20690;-75
2022/03/26 11:43:45;;;;;;;4.30;1.15;;;17.00;99.90;;;;;;4925583;29;20020;-73
2022/03/26 11:52:26;;;;;;;2.58;1.17;;;17.00;99.90;;;;;;4921002;29;20046;-76
2022/03/26 11:55:12;;;;;;;1.33;0.77;;;17.00;99.90;;;;;;4916903;29;20028;-73
2022/03/26 11:57:40;;;;;;;1.00;0.68;;;17.00;99.90;;;;;;4919666;29;20039;-77
2022/03/26 12:00:21;;;;;;;1.73;0.88;;;16.90;99.90;;;;;;4930784;29;20042;-76
2022/03/26 12:02:54;;;;;;;4.63;0.70;;;16.90;99.90;;;;;;4923340;29;20032;-74
2022/03/26 12:08:11;;;;;;;3.08;1.00;;;16.90;99.90;;;;;;4919977;29;20058;-77
2022/03/26 12:10:39;;;;;;;2.33;1.02;;;16.80;99.90;;;;;;4931639;29;20016;-75
2022/03/26 12:13:08;;;;;;;3.65;1.63;;;16.80;99.90;;;;;;4926713;29;20054;-75
2022/03/26 12:15:36;;;;;;;1.25;0.70;;;16.80;99.90;;;;;;4929931;29;20083;-76
2022/03/26 12:18:14;;;;;;;3.33;0.80;;;16.90;99.90;;;;;;4922537;29;20031;-74
2022/03/26 12:20:46;;;;;;;1.05;0.73;;;16.90;99.90;;;;;;4923787;29;20582;-75
2022/03/26 12:23:14;;;;;;;1.50;0.75;;;16.90;99.90;;;;;;4923130;29;20028;-77
2022/03/26 12:25:46;;;;;;;2.00;0.60;;;16.90;99.90;;;;;;4922962;29;20032;-78
2022/03/26 12:28:19;;;;;;;2.55;0.80;;;16.90;99.90;;;;;;4928722;29;20046;-76
2022/03/26 12:30:54;;;;;;;2.35;1.13;;;16.90;99.90;;;;;;4928526;29;20489;-76
2022/03/26 12:33:23;;;;;;;1.38;0.77;;;16.90;99.90;;;;;;4931394;29;20050;-76
2022/03/26 12:35:53;;;;;;;5.20;1.00;;;16.90;99.90;;;;;;4922315;29;20044;-77
2022/03/26 12:38:22;;;;;;;1.50;0.60;;;16.90;99.90;;;;;;4928195;29;20035;-77
2022/03/26 12:40:56;;;;;;;2.75;0.98;;;16.90;99.90;;;;;;4927098;29;20035;-75
2022/03/26 12:43:24;;;;;;;3.83;1.30;;;16.90;99.90;;;;;;4922716;29;20494;-75
2022/03/26 12:45:54;;;;;;;2.33;0.90;;;17.00;99.90;;;;;;4928224;29;20040;-76
2022/03/26 12:48:23;;;;;;;3.92;0.88;;;17.00;99.90;;;;;;4930083;29;20027;-74
2022/03/26 12:50:51;;;;;;;4.00;0.88;;;17.00;99.90;;;;;;4929952;29;20119;-75
2022/03/26 12:53:19;;;;;;;3.58;0.68;;;17.00;99.90;;;;;;4933045;29;20040;-74
2022/03/26 12:55:57;;;;;;;7.03;0.73;;;17.00;99.90;;;;;;4932477;29;20096;-76
2022/03/26 13:01:15;;;;;;;1.20;0.60;;;17.00;99.90;;;;;;4924728;29;20054;-77
2022/03/26 13:03:44;;;;;;;1.00;0.60;;;17.10;99.90;;;;;;4919604;29;20060;-76
2022/03/26 13:06:16;;;;;;;7.15;0.98;;;17.10;99.90;;;;;;4929242;29;20031;-74
2022/03/26 13:08:55;;;;;;;3.15;0.70;;;17.10;99.90;;;;;;4920204;29;20048;-75
2022/03/26 13:11:24;;;;;;;2.15;0.60;;;17.20;99.90;;;;;;4923895;29;20039;-75
2022/03/26 13:13:54;;;;;;;3.60;0.40;;;17.20;99.90;;;;;;4949426;29;20042;-76